createdAt,value
2022-08-08T00:00:53.525Z,100.00
2022-08-08T00:02:04.024Z,100.00
2022-08-08T00:03:01.702Z,100.00
2022-08-08T00:04:25.388Z,100.00
2022-08-08T00:06:03.432Z,100.00
2022-08-08T00:07:16.883Z,100.00
2022-08-08T00:08:33.482Z,100.00
2022-08-08T00:09:41.278Z,100.00
2022-08-08T00:10:55.946Z,100.00
2022-08-08T00:12:09.332Z,100.00
2022-08-08T00:14:16.606Z,100.00
2022-08-08T00:14:57.176Z,100.00
2022-08-08T00:15:57.408Z,100.00
2022-08-08T00:16:55.681Z,100.00
2022-08-08T00:18:06.918Z,100.00
2022-08-08T00:19:19.581Z,100.00
2022-08-08T00:20:38.855Z,100.00
2022-08-08T00:21:47.821Z,100.00
2022-08-08T00:22:57.399Z,100.00
2022-08-08T00:24:09.959Z,100.00
2022-08-08T00:25:17.612Z,100.00
2022-08-08T00:26:35.692Z,100.00
2022-08-08T00:27:42.242Z,100.00
2022-08-08T00:28:48.563Z,100.00
2022-08-08T00:29:55.327Z,100.00
2022-08-08T00:32:14.863Z,100.00
2022-08-08T00:32:20.874Z,100.00
2022-08-08T00:33:15.622Z,100.00
2022-08-08T00:34:46.041Z,100.00
2022-08-08T00:36:15.066Z,100.00
2022-08-08T00:37:47.238Z,100.00
2022-08-08T00:38:51.745Z,100.00
2022-08-08T00:41:08.978Z,100.00
2022-08-08T00:41:14.482Z,100.00
2022-08-08T00:42:36.259Z,100.00
2022-08-08T00:43:59.179Z,100.00
2022-08-08T00:45:04.439Z,100.00
2022-08-08T00:46:24.751Z,100.00
2022-08-08T00:48:05.291Z,100.00
2022-08-08T00:49:21.994Z,100.00
2022-08-08T00:50:40.922Z,100.00
2022-08-08T00:52:04.287Z,100.00
2022-08-08T00:53:16.802Z,100.00
2022-08-08T00:54:55.805Z,100.00
2022-08-08T00:56:23.939Z,100.00
2022-08-08T00:57:48.575Z,100.00
2022-08-08T00:59:11.523Z,100.00
2022-08-08T01:00:23.419Z,100.00
2022-08-08T01:01:39.331Z,100.00
2022-08-08T01:03:59.200Z,100.00
2022-08-08T01:04:31.401Z,100.00
2022-08-08T01:06:12.428Z,100.00
2022-08-08T01:07:34.831Z,100.00
2022-08-08T01:09:00.281Z,100.00
2022-08-08T01:10:14.684Z,100.00
2022-08-08T01:11:39.189Z,100.00
2022-08-08T01:12:55.710Z,100.00
2022-08-08T01:14:16.309Z,100.00
2022-08-08T01:15:54.326Z,100.00
2022-08-08T01:17:35.059Z,100.00
2022-08-08T01:18:53.625Z,100.00
2022-08-08T01:20:08.225Z,100.00
2022-08-08T01:22:07.138Z,100.00
2022-08-08T01:22:57.585Z,100.00
2022-08-08T01:24:26.189Z,100.00
2022-08-08T01:25:49.123Z,100.00
2022-08-08T01:27:10.982Z,100.00
2022-08-08T01:28:28.011Z,100.00
2022-08-08T01:29:59.478Z,100.00
2022-08-08T01:30:59.934Z,100.00
2022-08-08T01:32:30.354Z,100.00
2022-08-08T01:34:00.620Z,100.00
2022-08-08T01:34:57.263Z,100.00
2022-08-08T01:36:12.368Z,100.00
2022-08-08T01:37:57.670Z,100.00
2022-08-08T01:39:03.430Z,100.00
2022-08-08T01:40:35.817Z,100.00
2022-08-08T01:42:15.103Z,100.00
2022-08-08T01:43:38.852Z,100.00
2022-08-08T01:44:50.703Z,100.00
2022-08-08T01:46:14.681Z,100.00
2022-08-08T01:48:03.126Z,100.00
2022-08-08T01:48:34.181Z,100.00
2022-08-08T01:49:53.754Z,100.00
2022-08-08T01:51:31.826Z,100.00
2022-08-08T01:52:55.817Z,100.00
2022-08-08T01:55:17.848Z,100.00
2022-08-08T01:58:19.262Z,100.00
2022-08-08T02:00:50.262Z,100.00
2022-08-08T02:02:15.790Z,100.00
2022-08-08T02:03:54.782Z,100.00
2022-08-08T02:04:33.030Z,100.00
2022-08-08T02:05:56.352Z,100.00
2022-08-08T02:07:06.731Z,100.00
2022-08-08T02:08:34.493Z,100.00
2022-08-08T02:10:03.688Z,100.00
2022-08-08T02:11:07.157Z,100.00
2022-08-08T02:12:25.508Z,100.00
2022-08-08T02:13:54.162Z,100.00
2022-08-08T02:14:58.854Z,100.00
2022-08-08T02:16:08.716Z,100.00
2022-08-08T02:17:20.366Z,100.00
2022-08-08T02:20:15.878Z,100.00
2022-08-08T02:21:39.485Z,100.00
2022-08-08T02:23:15.965Z,100.00
2022-08-08T02:24:27.943Z,100.00
2022-08-08T02:25:47.205Z,100.00
2022-08-08T02:26:58.201Z,100.00
2022-08-08T02:28:19.400Z,100.00
2022-08-08T02:29:51.716Z,100.00
2022-08-08T02:31:58.610Z,100.00
2022-08-08T02:32:45.869Z,100.00
2022-08-08T02:34:00.630Z,100.00
2022-08-08T02:35:11.775Z,100.00
2022-08-08T02:36:48.442Z,100.00
2022-08-08T02:38:13.936Z,100.00
2022-08-08T02:39:59.705Z,100.00
2022-08-08T02:40:53.427Z,100.00
2022-08-08T02:42:36.031Z,100.00
2022-08-08T02:44:38.507Z,100.00
2022-08-08T02:45:18.524Z,100.00
2022-08-08T02:46:31.797Z,100.00
2022-08-08T02:47:47.023Z,100.00
2022-08-08T02:49:09.374Z,100.00
2022-08-08T02:50:37.474Z,100.00
2022-08-08T02:51:56.357Z,100.00
2022-08-08T02:52:55.832Z,100.00
2022-08-08T02:54:05.025Z,100.00
2022-08-08T02:55:26.608Z,100.00
2022-08-08T02:56:45.572Z,100.00
2022-08-08T02:58:26.681Z,100.00
2022-08-08T03:00:26.669Z,100.00
2022-08-08T03:01:39.691Z,100.00
2022-08-08T03:03:03.937Z,100.00
2022-08-08T03:05:03.999Z,100.00
2022-08-08T03:06:01.775Z,100.00
2022-08-08T03:07:41.738Z,100.00
2022-08-08T03:09:06.168Z,100.00
2022-08-08T03:10:37.808Z,100.00
2022-08-08T03:12:01.223Z,100.00
2022-08-08T03:15:53.464Z,100.00
2022-08-08T03:15:56.485Z,100.00
2022-08-08T03:16:05.682Z,100.00
2022-08-08T03:17:39.611Z,100.00
2022-08-08T03:19:17.706Z,100.00
2022-08-08T03:20:20.656Z,100.00
2022-08-08T03:21:40.582Z,100.00
2022-08-08T03:22:38.626Z,100.00
2022-08-08T03:23:47.209Z,100.00
2022-08-08T03:24:36.062Z,100.00
2022-08-08T03:25:39.515Z,100.00
2022-08-08T03:26:45.771Z,100.00
2022-08-08T03:27:57.050Z,100.00
2022-08-08T03:29:17.011Z,100.00
2022-08-08T03:30:15.298Z,100.00
2022-08-08T03:31:25.826Z,100.00
2022-08-08T03:32:30.521Z,100.00
2022-08-08T03:33:54.827Z,100.00
2022-08-08T03:34:40.001Z,100.00
2022-08-08T03:35:47.156Z,100.00
2022-08-08T03:36:51.978Z,100.00
2022-08-08T03:38:53.968Z,100.00
2022-08-08T03:39:14.737Z,100.00
2022-08-08T03:40:10.800Z,100.00
2022-08-08T03:42:04.038Z,100.00
2022-08-08T03:42:30.056Z,100.00
2022-08-08T03:43:21.929Z,100.00
2022-08-08T03:44:35.186Z,100.00
2022-08-08T03:46:07.018Z,100.00
2022-08-08T03:46:49.220Z,100.00
2022-08-08T03:48:05.368Z,100.00
2022-08-08T03:49:57.941Z,100.00
2022-08-08T03:50:24.853Z,100.00
2022-08-08T03:51:50.933Z,100.00
2022-08-08T03:52:33.995Z,100.00
2022-08-08T03:53:47.426Z,100.00
2022-08-08T03:55:01.595Z,100.00
2022-08-08T03:55:55.922Z,100.00
2022-08-08T03:56:55.805Z,100.00
2022-08-08T03:58:30.142Z,100.00
2022-08-08T03:59:03.495Z,100.00
2022-08-08T04:00:11.802Z,100.00
2022-08-08T04:01:23.372Z,100.00
2022-08-08T04:02:36.797Z,100.00
2022-08-08T04:03:58.343Z,100.00
2022-08-08T04:04:38.741Z,100.00
2022-08-08T04:05:49.611Z,100.00
2022-08-08T04:06:57.566Z,100.00
2022-08-08T04:08:05.723Z,100.00
2022-08-08T04:09:11.275Z,100.00
2022-08-08T04:10:14.033Z,100.00
2022-08-08T04:11:17.658Z,100.00
2022-08-08T04:12:20.757Z,100.00
2022-08-08T04:13:25.622Z,100.00
2022-08-08T04:14:34.806Z,100.00
2022-08-08T04:15:38.677Z,100.00
2022-08-08T04:16:41.098Z,100.00
2022-08-08T04:17:58.032Z,100.00
2022-08-08T04:18:49.094Z,100.00
2022-08-08T04:19:55.480Z,100.00
2022-08-08T04:21:01.188Z,100.00
2022-08-08T04:22:05.316Z,100.00
2022-08-08T04:23:10.934Z,100.00
2022-08-08T04:24:28.198Z,100.00
2022-08-08T04:25:20.672Z,100.00
2022-08-08T04:26:25.869Z,100.00
2022-08-08T04:28:01.462Z,100.00
2022-08-08T04:28:39.947Z,100.00
2022-08-08T04:29:37.742Z,100.00
2022-08-08T04:30:44.417Z,100.00
2022-08-08T04:31:58.495Z,100.00
2022-08-08T04:32:51.654Z,100.00
2022-08-08T04:33:55.919Z,100.00
2022-08-08T04:34:58.925Z,100.00
2022-08-08T04:36:03.365Z,100.00
2022-08-08T04:37:07.128Z,100.00
2022-08-08T04:38:10.684Z,100.00
2022-08-08T04:40:03.271Z,100.00
2022-08-08T04:40:23.715Z,100.00
2022-08-08T04:41:36.514Z,100.00
2022-08-08T04:42:33.997Z,100.00
2022-08-08T04:43:45.937Z,100.00
2022-08-08T04:44:43.478Z,100.00
2022-08-08T04:45:49.445Z,100.00
2022-08-08T04:46:52.662Z,100.00
2022-08-08T04:47:56.170Z,100.00
2022-08-08T04:48:58.355Z,100.00
2022-08-08T04:50:04.901Z,100.00
2022-08-08T04:51:06.502Z,100.00
2022-08-08T04:52:10.516Z,100.00
2022-08-08T04:54:36.573Z,100.00
2022-08-08T04:54:38.978Z,100.00
2022-08-08T04:55:25.273Z,100.00
2022-08-08T04:56:29.892Z,100.00
2022-08-08T04:57:34.318Z,100.00
2022-08-08T04:58:36.369Z,100.00
2022-08-08T04:59:42.063Z,100.00
2022-08-08T05:00:47.700Z,100.00
2022-08-08T05:01:51.044Z,100.00
2022-08-08T05:02:56.412Z,100.00
2022-08-08T05:04:11.082Z,100.00
2022-08-08T05:05:06.611Z,100.00
2022-08-08T05:06:12.556Z,100.00
2022-08-08T05:07:15.743Z,100.00
2022-08-08T05:08:18.194Z,100.00
2022-08-08T05:09:24.165Z,100.00
2022-08-08T05:10:28.298Z,100.00
2022-08-08T05:11:38.662Z,100.00
2022-08-08T05:13:00.375Z,100.00
2022-08-08T05:13:57.505Z,99.96
2022-08-08T05:14:46.062Z,99.77
2022-08-08T05:16:55.396Z,99.75
2022-08-08T05:17:01.160Z,100.00
2022-08-08T05:18:00.778Z,100.00
2022-08-08T05:19:04.253Z,100.00
2022-08-08T05:20:14.967Z,100.00
2022-08-08T05:21:14.918Z,99.64
2022-08-08T05:22:19.410Z,99.71
2022-08-08T05:23:23.483Z,99.94
2022-08-08T05:24:26.996Z,100.00
2022-08-08T05:25:40.540Z,98.69
2022-08-08T05:26:35.833Z,98.85
2022-08-08T05:27:41.043Z,99.51
2022-08-08T05:28:56.638Z,99.25
2022-08-08T05:29:51.798Z,99.30
2022-08-08T05:30:52.063Z,99.86
2022-08-08T05:32:04.571Z,99.86
2022-08-08T05:33:03.363Z,100.00
2022-08-08T05:34:26.559Z,99.98
2022-08-08T05:35:33.455Z,99.18
2022-08-08T05:36:37.927Z,97.97
2022-08-08T05:37:52.731Z,98.17
2022-08-08T05:38:56.079Z,98.21
2022-08-08T05:40:05.033Z,98.16
2022-08-08T05:41:09.354Z,97.25
2022-08-08T05:42:13.982Z,98.10
2022-08-08T05:44:02.889Z,97.64
2022-08-08T05:44:31.217Z,96.98
2022-08-08T05:45:43.085Z,97.13
2022-08-08T05:46:47.487Z,96.86
2022-08-08T05:48:00.505Z,96.79
2022-08-08T05:48:54.749Z,96.28
2022-08-08T05:50:00.040Z,95.14
2022-08-08T05:51:15.061Z,95.31
2022-08-08T05:52:09.618Z,93.65
2022-08-08T05:53:53.719Z,94.19
2022-08-08T05:54:28.137Z,94.36
2022-08-08T05:55:23.008Z,93.99
2022-08-08T05:56:29.483Z,93.76
2022-08-08T05:58:05.554Z,93.40
2022-08-08T05:58:53.823Z,93.30
2022-08-08T05:59:53.635Z,92.92
2022-08-08T06:00:58.520Z,93.14
2022-08-08T06:02:03.396Z,93.93
2022-08-08T06:03:09.298Z,94.27
2022-08-08T06:04:27.795Z,94.74
2022-08-08T06:05:37.020Z,93.96
2022-08-08T06:06:41.497Z,94.51
2022-08-08T06:07:48.497Z,94.76
2022-08-08T06:09:00.353Z,94.87
2022-08-08T06:10:06.459Z,94.38
2022-08-08T06:11:09.567Z,93.87
2022-08-08T06:12:18.617Z,92.89
2022-08-08T06:13:22.777Z,94.38
2022-08-08T06:14:26.662Z,94.97
2022-08-08T06:15:50.968Z,95.26
2022-08-08T06:16:38.293Z,95.63
2022-08-08T06:18:18.371Z,96.16
2022-08-08T06:18:52.769Z,96.56
2022-08-08T06:19:58.110Z,96.49
2022-08-08T06:21:11.745Z,95.21
2022-08-08T06:23:18.401Z,97.22
2022-08-08T06:24:30.632Z,97.12
2022-08-08T06:25:33.390Z,96.83
2022-08-08T06:26:44.665Z,97.44
2022-08-08T06:27:54.987Z,96.65
2022-08-08T06:29:26.877Z,97.53
2022-08-08T06:30:20.164Z,97.67
2022-08-08T06:31:22.856Z,97.89
2022-08-08T06:32:29.841Z,96.89
2022-08-08T06:34:26.676Z,96.78
2022-08-08T06:34:56.386Z,97.54
2022-08-08T06:36:06.610Z,97.33
2022-08-08T06:37:24.136Z,96.03
2022-08-08T06:38:14.171Z,94.89
2022-08-08T06:39:16.573Z,94.75
2022-08-08T06:40:26.732Z,94.02
2022-08-08T06:41:33.111Z,92.37
2022-08-08T06:42:38.911Z,92.13
2022-08-08T06:43:47.659Z,91.98
2022-08-08T06:44:53.467Z,91.06
2022-08-08T06:45:56.639Z,90.39
2022-08-08T06:47:00.544Z,89.88
2022-08-08T06:48:05.820Z,90.28
2022-08-08T06:49:12.016Z,89.89
2022-08-08T06:50:17.628Z,89.79
2022-08-08T06:51:22.510Z,89.29
2022-08-08T06:52:27.813Z,88.87
2022-08-08T06:53:38.850Z,87.92
2022-08-08T06:54:37.124Z,87.39
2022-08-08T06:55:43.183Z,87.57
2022-08-08T06:56:47.044Z,87.14
2022-08-08T06:57:56.153Z,86.90
2022-08-08T06:58:56.918Z,86.26
2022-08-08T07:00:12.159Z,85.56
2022-08-08T07:01:14.352Z,85.68
2022-08-08T07:02:28.355Z,86.20
2022-08-08T07:03:52.566Z,86.39
2022-08-08T07:04:58.563Z,85.21
2022-08-08T07:06:06.540Z,86.77
2022-08-08T07:07:12.270Z,86.55
2022-08-08T07:08:22.957Z,87.41
2022-08-08T07:09:45.380Z,89.21
2022-08-08T07:10:40.296Z,90.19
2022-08-08T07:11:50.880Z,90.87
2022-08-08T07:12:56.522Z,91.01
2022-08-08T07:14:05.285Z,91.17
2022-08-08T07:15:32.786Z,91.60
2022-08-08T07:16:27.386Z,90.22
2022-08-08T07:17:40.382Z,91.67
2022-08-08T07:18:50.832Z,92.10
2022-08-08T07:20:04.315Z,91.91
2022-08-08T07:21:18.394Z,92.18
2022-08-08T07:22:18.763Z,92.23
2022-08-08T07:24:01.961Z,90.76
2022-08-08T07:24:47.128Z,91.45
2022-08-08T07:25:54.867Z,92.42
2022-08-08T07:26:59.466Z,93.48
2022-08-08T07:28:13.513Z,94.42
2022-08-08T07:29:54.598Z,95.30
2022-08-08T07:30:25.573Z,93.95
2022-08-08T07:31:25.937Z,94.23
2022-08-08T07:32:29.301Z,94.57
2022-08-08T07:33:37.880Z,93.75
2022-08-08T07:34:48.373Z,93.84
2022-08-08T07:35:45.740Z,93.14
2022-08-08T07:36:52.086Z,93.30
2022-08-08T07:38:09.864Z,93.24
2022-08-08T07:39:06.178Z,93.09
2022-08-08T07:40:21.122Z,93.04
2022-08-08T07:41:25.011Z,93.94
2022-08-08T07:42:32.896Z,93.85
2022-08-08T07:43:37.339Z,94.37
2022-08-08T07:44:43.394Z,94.15
2022-08-08T07:46:05.010Z,93.55
2022-08-08T07:46:49.280Z,93.19
2022-08-08T07:47:52.740Z,91.91
2022-08-08T07:48:56.257Z,91.26
2022-08-08T07:50:02.501Z,89.69
2022-08-08T07:51:08.097Z,90.23
2022-08-08T07:52:19.659Z,89.23
2022-08-08T07:54:03.052Z,87.26
2022-08-08T07:56:36.738Z,85.00
2022-08-08T07:58:14.543Z,85.29
2022-08-08T07:59:19.446Z,85.25
2022-08-08T08:00:25.675Z,85.47
2022-08-08T08:02:37.148Z,85.76
2022-08-08T08:02:45.025Z,86.98
2022-08-08T08:04:03.117Z,86.60
2022-08-08T08:05:15.531Z,86.81
2022-08-08T08:06:20.123Z,85.12
2022-08-08T08:07:32.242Z,84.17
2022-08-08T08:08:41.847Z,84.97
2022-08-08T08:09:45.854Z,85.54
2022-08-08T08:10:54.590Z,84.47
2022-08-08T08:12:00.001Z,84.46
2022-08-08T08:13:17.897Z,83.26
2022-08-08T08:14:17.626Z,84.42
2022-08-08T08:15:24.953Z,82.56
2022-08-08T08:16:32.609Z,83.46
2022-08-08T08:17:44.958Z,82.34
2022-08-08T08:18:55.861Z,82.93
2022-08-08T08:19:55.733Z,81.60
2022-08-08T08:21:02.166Z,81.48
2022-08-08T08:22:07.819Z,81.42
2022-08-08T08:23:13.589Z,80.51
2022-08-08T08:24:18.597Z,78.77
2022-08-08T08:25:40.962Z,78.73
2022-08-08T08:26:27.584Z,79.34
2022-08-08T08:27:34.502Z,79.32
2022-08-08T08:28:38.547Z,80.16
2022-08-08T08:29:43.635Z,80.46
2022-08-08T08:30:48.343Z,79.46
2022-08-08T08:31:57.245Z,81.07
2022-08-08T08:32:55.947Z,81.06
2022-08-08T08:34:01.106Z,82.47
2022-08-08T08:35:04.426Z,82.82
2022-08-08T08:36:17.531Z,83.09
2022-08-08T08:37:15.488Z,83.37
2022-08-08T08:38:19.225Z,82.37
2022-08-08T08:39:25.466Z,83.73
2022-08-08T08:40:31.239Z,83.21
2022-08-08T08:41:36.283Z,81.79
2022-08-08T08:42:39.927Z,81.53
2022-08-08T08:43:45.335Z,81.61
2022-08-08T08:44:49.055Z,81.09
2022-08-08T08:45:57.287Z,81.54
2022-08-08T08:47:02.036Z,80.70
2022-08-08T08:48:05.893Z,80.33
2022-08-08T08:49:11.516Z,81.17
2022-08-08T08:50:33.181Z,82.15
2022-08-08T08:51:25.047Z,81.44
2022-08-08T08:52:28.655Z,80.59
2022-08-08T08:53:56.602Z,81.28
2022-08-08T08:54:46.979Z,81.26
2022-08-08T08:55:54.158Z,79.79
2022-08-08T08:56:57.660Z,79.79
2022-08-08T08:58:01.945Z,78.53
2022-08-08T08:59:05.977Z,79.77
2022-08-08T09:00:17.143Z,79.73
2022-08-08T09:01:22.257Z,78.88
2022-08-08T09:02:27.808Z,79.86
2022-08-08T09:03:46.718Z,80.34
2022-08-08T09:04:39.645Z,80.58
2022-08-08T09:05:54.357Z,80.38
2022-08-08T09:06:53.853Z,80.42
2022-08-08T09:08:13.069Z,81.20
2022-08-08T09:09:18.909Z,81.32
2022-08-08T09:10:22.436Z,80.94
2022-08-08T09:11:33.182Z,81.44
2022-08-08T09:12:35.332Z,81.80
2022-08-08T09:13:39.421Z,82.48
2022-08-08T09:14:47.707Z,82.85
2022-08-08T09:15:50.187Z,81.27
2022-08-08T09:16:54.643Z,82.37
2022-08-08T09:17:58.517Z,82.87
2022-08-08T09:19:03.534Z,83.26
2022-08-08T09:21:57.058Z,83.44
2022-08-08T09:22:05.438Z,83.46
2022-08-08T09:22:19.631Z,83.12
2022-08-08T09:23:25.889Z,84.82
2022-08-08T09:24:29.394Z,84.54
2022-08-08T09:25:36.140Z,84.77
2022-08-08T09:27:02.906Z,83.95
2022-08-08T09:28:06.015Z,82.69
2022-08-08T09:29:10.406Z,82.71
2022-08-08T09:30:17.186Z,82.17
2022-08-08T09:31:42.621Z,81.30
2022-08-08T09:32:50.489Z,80.68
2022-08-08T09:34:16.008Z,80.21
2022-08-08T09:34:57.316Z,79.33
2022-08-08T09:36:01.386Z,79.44
2022-08-08T09:37:39.463Z,78.82
2022-08-08T09:38:17.919Z,77.43
2022-08-08T09:39:25.476Z,77.95
2022-08-08T09:40:41.884Z,77.69
2022-08-08T09:42:14.304Z,77.54
2022-08-08T09:42:52.202Z,77.82
2022-08-08T09:44:05.781Z,79.69
2022-08-08T09:45:20.844Z,81.09
2022-08-08T09:46:30.771Z,80.53
2022-08-08T09:48:02.527Z,80.24
2022-08-08T09:48:35.322Z,81.03
2022-08-08T09:49:42.884Z,80.71
2022-08-08T09:50:43.987Z,80.83
2022-08-08T09:52:06.137Z,80.44
2022-08-08T09:53:05.568Z,80.31
2022-08-08T09:54:15.312Z,79.93
2022-08-08T09:55:17.304Z,81.01
2022-08-08T09:56:24.881Z,79.49
2022-08-08T09:57:45.756Z,79.66
2022-08-08T09:58:54.497Z,81.30
2022-08-08T10:01:14.398Z,81.30
2022-08-08T10:02:21.400Z,81.47
2022-08-08T10:03:27.829Z,81.64
2022-08-08T10:04:42.194Z,80.22
2022-08-08T10:05:39.768Z,79.92
2022-08-08T10:06:44.953Z,81.60
2022-08-08T10:08:00.412Z,80.70
2022-08-08T10:08:58.636Z,80.58
2022-08-08T10:10:07.053Z,80.02
2022-08-08T10:12:22.490Z,79.25
2022-08-08T10:12:27.199Z,78.18
2022-08-08T10:13:25.967Z,77.91
2022-08-08T10:14:38.497Z,78.23
2022-08-08T10:15:39.108Z,76.91
2022-08-08T10:16:42.715Z,76.20
2022-08-08T10:17:57.219Z,76.26
2022-08-08T10:18:55.467Z,75.79
2022-08-08T10:20:01.036Z,75.62
2022-08-08T10:21:22.432Z,73.59
2022-08-08T10:22:13.876Z,72.99
2022-08-08T10:23:41.840Z,73.88
2022-08-08T10:24:29.556Z,74.21
2022-08-08T10:25:36.267Z,75.17
2022-08-08T10:26:57.248Z,73.41
2022-08-08T10:27:57.844Z,75.00
2022-08-08T10:29:08.556Z,75.50
2022-08-08T10:30:16.785Z,76.61
2022-08-08T10:31:17.930Z,76.91
2022-08-08T10:32:25.523Z,78.04
2022-08-08T10:33:38.328Z,77.07
2022-08-08T10:34:38.804Z,77.62
2022-08-08T10:36:08.567Z,75.55
2022-08-08T10:36:47.671Z,74.55
2022-08-08T10:37:55.554Z,74.29
2022-08-08T10:38:59.870Z,74.56
2022-08-08T10:40:16.115Z,74.14
2022-08-08T10:41:23.600Z,74.94
2022-08-08T10:42:34.407Z,75.42
2022-08-08T10:43:38.397Z,73.50
2022-08-08T10:44:42.737Z,71.48
2022-08-08T10:45:56.108Z,72.27
2022-08-08T10:46:52.953Z,72.73
2022-08-08T10:48:00.111Z,71.27
2022-08-08T10:49:02.706Z,70.20
2022-08-08T10:50:07.667Z,71.88
2022-08-08T10:51:13.230Z,72.00
2022-08-08T10:52:34.172Z,71.77
2022-08-08T10:53:56.831Z,71.05
2022-08-08T10:54:45.024Z,72.30
2022-08-08T10:55:53.532Z,71.09
2022-08-08T10:57:04.192Z,70.17
2022-08-08T10:58:10.025Z,69.02
2022-08-08T10:59:16.525Z,72.22
2022-08-08T11:00:25.771Z,72.62
2022-08-08T11:01:33.691Z,73.59
2022-08-08T11:02:37.612Z,73.99
2022-08-08T11:04:01.466Z,73.75
2022-08-08T11:04:53.643Z,73.49
2022-08-08T11:06:00.494Z,73.68
2022-08-08T11:07:00.532Z,74.03
2022-08-08T11:08:31.249Z,73.82
2022-08-08T11:09:19.471Z,72.62
2022-08-08T11:10:28.570Z,72.09
2022-08-08T11:11:32.016Z,73.36
2022-08-08T11:12:38.419Z,75.62
2022-08-08T11:13:52.044Z,76.69
2022-08-08T11:14:52.951Z,77.10
2022-08-08T11:16:07.830Z,77.22
2022-08-08T11:17:00.278Z,77.23
2022-08-08T11:18:05.287Z,77.62
2022-08-08T11:19:10.650Z,77.40
2022-08-08T11:20:17.789Z,77.40
2022-08-08T11:21:22.164Z,76.60
2022-08-08T11:22:28.809Z,76.51
2022-08-08T11:23:33.196Z,77.03
2022-08-08T11:24:36.730Z,77.35
2022-08-08T11:25:52.027Z,76.80
2022-08-08T11:26:56.981Z,75.22
2022-08-08T11:27:53.643Z,73.91
2022-08-08T11:28:58.164Z,75.16
2022-08-08T11:30:19.839Z,74.28
2022-08-08T11:31:09.742Z,74.34
2022-08-08T11:32:13.611Z,74.11
2022-08-08T11:33:16.828Z,74.89
2022-08-08T11:34:34.377Z,73.56
2022-08-08T11:35:38.480Z,72.43
2022-08-08T11:36:37.292Z,73.17
2022-08-08T11:38:37.030Z,73.39
2022-08-08T11:38:54.690Z,73.73
2022-08-08T11:39:57.368Z,73.16
2022-08-08T11:40:57.412Z,73.24
2022-08-08T11:42:00.317Z,72.73
2022-08-08T11:43:04.496Z,72.64
2022-08-08T11:44:08.084Z,72.68
2022-08-08T11:45:12.812Z,72.94
2022-08-08T11:46:19.664Z,72.29
2022-08-08T11:47:22.857Z,71.32
2022-08-08T11:48:27.723Z,71.18
2022-08-08T11:49:30.631Z,71.97
2022-08-08T11:50:34.936Z,73.30
2022-08-08T11:51:40.179Z,73.43
2022-08-08T11:52:47.140Z,74.31
2022-08-08T11:53:59.303Z,74.50
2022-08-08T11:54:54.540Z,73.73
2022-08-08T11:55:57.006Z,74.40
2022-08-08T11:57:14.102Z,75.03
2022-08-08T11:58:16.171Z,75.03
2022-08-08T11:59:19.041Z,74.29
2022-08-08T12:00:27.350Z,73.50
2022-08-08T12:01:32.685Z,74.31
2022-08-08T12:02:53.576Z,73.22
2022-08-08T12:04:04.476Z,72.03
2022-08-08T12:05:14.065Z,72.75
2022-08-08T12:06:18.224Z,73.40
2022-08-08T12:07:21.309Z,72.52
2022-08-08T12:08:33.249Z,70.90
2022-08-08T12:09:56.507Z,72.44
2022-08-08T12:10:51.796Z,73.38
2022-08-08T12:11:55.544Z,73.85
2022-08-08T12:13:03.950Z,73.37
2022-08-08T12:14:07.834Z,73.67
2022-08-08T12:15:18.106Z,73.39
2022-08-08T12:16:30.786Z,72.47
2022-08-08T12:17:36.795Z,74.03
2022-08-08T12:18:50.992Z,70.97
2022-08-08T12:19:56.800Z,71.26
2022-08-08T12:21:00.099Z,72.17
2022-08-08T12:22:08.759Z,71.63
2022-08-08T12:23:25.086Z,71.76
2022-08-08T12:24:18.075Z,70.80
2022-08-08T12:25:29.839Z,71.83
2022-08-08T12:26:38.678Z,72.16
2022-08-08T12:27:45.548Z,72.84
2022-08-08T12:28:57.221Z,73.37
2022-08-08T12:29:59.465Z,73.55
2022-08-08T12:31:07.420Z,74.00
2022-08-08T12:32:17.132Z,73.99
2022-08-08T12:33:37.345Z,73.26
2022-08-08T12:34:48.913Z,73.09
2022-08-08T12:35:53.121Z,72.24
2022-08-08T12:36:59.193Z,73.17
2022-08-08T12:38:04.512Z,71.53
2022-08-08T12:39:06.983Z,71.35
2022-08-08T12:40:22.451Z,71.90
2022-08-08T12:41:33.623Z,72.10
2022-08-08T12:42:33.750Z,71.41
2022-08-08T12:43:46.135Z,71.37
2022-08-08T12:44:38.870Z,72.01
2022-08-08T12:45:58.914Z,70.83
2022-08-08T12:47:00.230Z,70.91
2022-08-08T12:48:35.707Z,70.98
2022-08-08T12:49:25.185Z,72.26
2022-08-08T12:50:16.809Z,70.66
2022-08-08T12:51:21.839Z,70.25
2022-08-08T12:52:28.867Z,70.61
2022-08-08T12:53:37.966Z,70.12
2022-08-08T12:54:40.836Z,70.51
2022-08-08T12:56:18.245Z,70.01
2022-08-08T12:57:18.160Z,70.83
2022-08-08T12:58:20.737Z,69.44
2022-08-08T12:59:36.266Z,69.46
2022-08-08T13:00:33.818Z,67.96
2022-08-08T13:01:37.572Z,67.34
2022-08-08T13:02:42.088Z,68.73
2022-08-08T13:03:51.907Z,68.82
2022-08-08T13:04:57.163Z,69.00
2022-08-08T13:08:03.540Z,69.75
2022-08-08T13:08:53.590Z,71.20
2022-08-08T13:10:04.825Z,72.30
2022-08-08T13:11:03.620Z,72.97
2022-08-08T13:12:28.084Z,72.34
2022-08-08T13:13:28.945Z,72.52
2022-08-08T13:14:38.354Z,73.59
2022-08-08T13:15:42.965Z,73.35
2022-08-08T13:16:49.542Z,74.58
2022-08-08T13:17:51.822Z,74.19
2022-08-08T13:19:01.719Z,74.68
2022-08-08T13:20:04.246Z,72.60
2022-08-08T13:21:06.904Z,72.55
2022-08-08T13:22:12.088Z,73.32
2022-08-08T13:23:36.794Z,73.83
2022-08-08T13:24:38.482Z,72.99
2022-08-08T13:25:31.158Z,70.94
2022-08-08T13:26:34.717Z,71.09
2022-08-08T13:27:37.254Z,70.74
2022-08-08T13:28:42.360Z,69.57
2022-08-08T13:30:01.440Z,69.09
2022-08-08T13:31:04.599Z,69.28
2022-08-08T13:32:07.143Z,71.01
2022-08-08T13:33:11.042Z,68.46
2022-08-08T13:34:21.444Z,68.83
2022-08-08T13:35:29.627Z,68.32
2022-08-08T13:36:32.915Z,68.19
2022-08-08T13:38:05.246Z,69.39
2022-08-08T13:38:40.138Z,68.59
2022-08-08T13:39:45.521Z,69.24
2022-08-08T13:40:51.346Z,69.17
2022-08-08T13:42:01.270Z,69.24
2022-08-08T13:43:03.871Z,68.14
2022-08-08T13:44:10.775Z,69.44
2022-08-08T13:45:12.071Z,69.86
2022-08-08T13:46:26.336Z,68.91
2022-08-08T13:47:22.699Z,68.98
2022-08-08T13:48:26.113Z,68.23
2022-08-08T13:50:33.674Z,68.95
2022-08-08T13:50:48.845Z,69.39
2022-08-08T13:51:41.902Z,70.26
2022-08-08T13:52:48.230Z,68.43
2022-08-08T13:54:00.246Z,68.43
2022-08-08T13:55:02.755Z,70.25
2022-08-08T13:56:11.310Z,69.16
2022-08-08T13:57:15.003Z,68.59
2022-08-08T13:58:21.077Z,69.38
2022-08-08T13:59:32.803Z,68.27
2022-08-08T14:00:40.417Z,68.63
2022-08-08T14:01:57.152Z,68.81
2022-08-08T14:03:00.429Z,68.83
2022-08-08T14:04:02.664Z,69.46
2022-08-08T14:05:20.178Z,69.25
2022-08-08T14:06:33.527Z,71.09
2022-08-08T14:07:21.177Z,70.58
2022-08-08T14:08:30.343Z,71.03
2022-08-08T14:10:05.791Z,68.87
2022-08-08T14:10:39.510Z,68.98
2022-08-08T14:11:42.020Z,70.07
2022-08-08T14:12:46.269Z,69.39
2022-08-08T14:13:59.587Z,67.12
2022-08-08T14:14:54.426Z,66.15
2022-08-08T14:16:04.893Z,66.37
2022-08-08T14:17:11.860Z,67.17
2022-08-08T14:18:36.871Z,67.40
2022-08-08T14:19:58.156Z,66.76
2022-08-08T14:20:55.988Z,67.24
2022-08-08T14:21:48.725Z,68.87
2022-08-08T14:22:52.134Z,69.94
2022-08-08T14:24:06.652Z,70.79
2022-08-08T14:25:07.561Z,68.42
2022-08-08T14:26:10.758Z,69.39
2022-08-08T14:27:27.183Z,69.82
2022-08-08T14:28:30.391Z,68.31
2022-08-08T14:29:34.665Z,70.54
2022-08-08T14:30:38.355Z,68.26
2022-08-08T14:32:08.787Z,70.01
2022-08-08T14:32:54.348Z,69.11
2022-08-08T14:33:57.222Z,70.31
2022-08-08T14:35:05.682Z,68.94
2022-08-08T14:36:09.412Z,69.71
2022-08-08T14:37:15.593Z,68.95
2022-08-08T14:38:34.212Z,67.63
2022-08-08T14:39:24.903Z,68.88
2022-08-08T14:40:27.720Z,69.80
2022-08-08T14:41:48.767Z,68.91
2022-08-08T14:42:55.255Z,70.67
2022-08-08T14:44:10.419Z,70.59
2022-08-08T14:45:10.084Z,71.47
2022-08-08T14:46:17.223Z,69.45
2022-08-08T14:47:21.727Z,70.11
2022-08-08T14:48:34.459Z,70.29
2022-08-08T14:49:33.664Z,69.72
2022-08-08T14:50:39.536Z,70.90
2022-08-08T14:51:51.814Z,70.70
2022-08-08T14:52:53.910Z,71.22
2022-08-08T14:53:56.737Z,70.64